Main page
METAR-TAF:

METAR-TAF

Airports :

Bingöl Airport

Bingöl, Turkey

latitude: 38-51-40N, longitude: 40-35-33E, elevation: 1063 m

Current weather observation

The report was made 5 hours and 0 minutes ago, at 12:50 UTC
Wind 12 kt from the South, varying between Southeast and West
Temperature 35°C
Humidity 13%
Pressure 1012 hPa
Visibility 10 km or more
Scattered clouds at a height of 3500 ft

METAR: LTCU 221250Z 17012KT 130V280 9999 SCT035 35/03 Q1012

Time: 20:50 (17:50 UTC)

Forecast

The report was made 4 hours and 10 minutes ago, at 13:40 UTC
Forecast valid from 22 at 15 UTC to 22 at 24 UTC
Wind 12 kt from the South/Southwest
Visibility 10 km or more
Few clouds at a height of 3500 ft
Becoming
from 22 at 15 UTC to 22 at 17 UTC
Visibility 10 km or more
no clouds below 1500 m and no cumulonimbus
Becoming
from 22 at 18 UTC to 22 at 21 UTC
Wind 2 kt from variable directions

TAF: LTCU 221340Z 2215/2224 21012KT 9999 FEW035 BECMG 2215/2217 CAVOK BECMG 2218/2221 VRB02KT

Weather observations and forecasts of more than 4000 airports (METAR and TAF reports).

The available stations are represented by yellow and red dots on the map.

Hover mouse over dot to see the name of the station.

Then click to see weather observations and forecasts.

To change the map : click on the green buttons with a black cross to zoom in, on the green button with a dash to zoom out, or on the green arrows for adjacent maps.


METAR-TAF: